Etusivu
METAR-TAF:

METAR-TAF

Lentoasemat :

Namsos, Norja

Leveyspiiri: 64-28N, Pituuspiiri: 011-35E, korkeus merenpinnasta: 0 m

Tämänhetkinen sää

Tämä raportti tehtiin 52 minuuttia sitten, kello 19.50 UTC
Tuuli 9 kn idästä/koillisesta, vaihdellen pohjoisen/koillisen ja idän välillä
Lämpötila 16°C
Kosteus 72%
Ilmanpaine 1018 hPa
Näkyvyys 10 km tai enemmän
ei pilviä alle 1500 m:ssä eikä cumulonimbus-pilviä

METAR: ENNM 231950Z 07009KT 030V100 CAVOK 16/11 Q1018

Aika: 22:42 (20:42 UTC)


TAF: puuttuu

Säähavainnot ja -ennusteet yli 4000 lentoasemalta (METAR- ja TAF-raportit).

Käytössä olevat sääasemat on merkitty karttaan keltaisilla ja punaisilla pisteillä.

Aseta hiiri pisteen päälle nähdäksesi sääaseman nimen.

Klikkaa sitten nähdäksesi säähavainnot ja -ennusteet.

Kartan vaihtaminen: klikkaa mustalla rastilla varustettuja vihreitä pisteitä, niin voit zoomata sisään; viivalla varustettua vihreää pistettä, niin voit zoomata ulos tai vihreitä nuolia, niin pääset viereisille kartoille.


METAR-TAF: